28 de Noviembre, Argentina
Current Conditions -  °F | °C
As of 9:00 PM on Sunday 21 Dec 2014 (Local Time) from SCCI Reporting Station
Broken Clouds Broken Clouds  
Wind Chill: 50°   Ceiling: 3000
Heat Index: 50°   Visibility: 6mi
Dew Point: 41°   Wind: 21mph
Humidity: 71%   Direction: 260°W
Pressure: 29.77"   Gusts: NA
Location:  51.65°S, 72.3°W
Report Text: SCCI 220000Z 26018KT 9999 FEW020 BKN030 10/05 Q1008 NOSIG
Loading
Personal Weather Stations






























Interactive Weather Map New forecast layout! Learn more

10-Day Weather Forecast

Advertisements
Track Severe Weather on mobile